createdAt,value
2023-01-25T00:01:06.131Z,20.65
2023-01-25T00:03:32.702Z,22.23
2023-01-25T00:06:01.373Z,22.40
2023-01-25T00:08:28.189Z,22.15
2023-01-25T00:10:56.287Z,27.38
2023-01-25T00:13:23.939Z,25.25
2023-01-25T00:15:50.305Z,23.85
2023-01-25T00:18:16.683Z,22.48
2023-01-25T00:20:43.057Z,22.30
2023-01-25T00:23:09.433Z,22.23
2023-01-25T00:25:35.882Z,24.85
2023-01-25T00:28:02.264Z,30.17
2023-01-25T00:30:28.632Z,25.23
2023-01-25T00:33:33.006Z,23.38
2023-01-25T00:36:00.988Z,21.95
2023-01-25T00:38:34.469Z,22.20
2023-01-25T00:41:00.869Z,25.35
2023-01-25T00:43:27.246Z,23.02
2023-01-25T00:46:00.665Z,21.40
2023-01-25T00:48:27.067Z,22.05
2023-01-25T00:50:53.458Z,23.08
2023-01-25T00:53:19.834Z,22.08
2023-01-25T00:55:53.015Z,22.08
2023-01-25T00:58:19.404Z,21.35
2023-01-25T01:00:45.848Z,19.50
2023-01-25T01:03:12.352Z,21.67
2023-01-25T01:05:38.750Z,21.52
2023-01-25T01:08:05.200Z,22.40
2023-01-25T01:10:31.574Z,21.77
2023-01-25T01:12:58.030Z,24.40
2023-01-25T01:15:24.402Z,22.25
2023-01-25T01:17:50.807Z,21.50
2023-01-25T01:20:17.173Z,22.45
2023-01-25T01:22:43.579Z,22.98
2023-01-25T01:25:10.887Z,23.55
2023-01-25T01:27:37.294Z,22.20
2023-01-25T01:30:04.039Z,21.95
2023-01-25T01:32:30.588Z,22.58
2023-01-25T01:34:57.036Z,22.63
2023-01-25T01:37:23.454Z,21.17
2023-01-25T01:39:49.824Z,21.77
2023-01-25T01:42:16.225Z,22.88
2023-01-25T01:44:51.015Z,22.73
2023-01-25T01:47:27.467Z,21.63
2023-01-25T01:49:57.166Z,24.15
2023-01-25T01:52:28.716Z,23.77
2023-01-25T01:55:18.096Z,23.33
2023-01-25T01:57:48.431Z,23.90
2023-01-25T02:00:21.298Z,23.80
2023-01-25T02:02:49.312Z,24.60
2023-01-25T02:05:30.697Z,26.02
2023-01-25T02:07:57.576Z,24.83
2023-01-25T02:10:25.729Z,25.13
2023-01-25T02:12:54.409Z,25.27
2023-01-25T02:15:20.900Z,26.48
2023-01-25T02:17:47.598Z,25.15
2023-01-25T02:20:37.436Z,24.85
2023-01-25T02:23:12.431Z,26.02
2023-01-25T02:25:39.990Z,24.92
2023-01-25T02:28:06.598Z,25.42
2023-01-25T02:30:33.931Z,24.63
2023-01-25T02:36:47.331Z,26.85
2023-01-25T02:39:20.063Z,28.92
2023-01-25T02:41:50.060Z,27.85
2023-01-25T02:44:20.339Z,27.40
2023-01-25T02:46:47.797Z,26.00
2023-01-25T02:49:15.224Z,26.83
2023-01-25T02:51:50.714Z,27.27
2023-01-25T02:54:18.442Z,32.83
2023-01-25T02:56:44.793Z,29.20
2023-01-25T02:59:13.208Z,29.35
2023-01-25T03:01:41.864Z,27.70
2023-01-25T03:04:08.832Z,28.80
2023-01-25T03:06:35.575Z,26.60
2023-01-25T03:09:03.773Z,28.48
2023-01-25T03:11:30.145Z,28.50
2023-01-25T03:13:56.489Z,27.75
2023-01-25T03:16:22.923Z,28.17
2023-01-25T03:18:54.050Z,29.20
2023-01-25T03:21:21.763Z,27.70
2023-01-25T03:23:48.870Z,28.40
2023-01-25T03:26:19.691Z,29.45
2023-01-25T03:28:46.178Z,28.70
2023-01-25T03:31:14.380Z,28.52
2023-01-25T03:33:41.158Z,28.63
2023-01-25T03:36:08.217Z,30.67
2023-01-25T03:38:35.344Z,27.63
2023-01-25T03:41:02.142Z,28.23
2023-01-25T03:43:29.133Z,29.58
2023-01-25T03:45:57.897Z,29.60
2023-01-25T03:48:25.086Z,41.85
2023-01-25T03:50:57.608Z,41.40
2023-01-25T03:53:30.013Z,32.60
2023-01-25T03:55:59.002Z,29.80
2023-01-25T03:58:25.772Z,31.27
2023-01-25T04:00:55.001Z,30.08
2023-01-25T04:03:21.594Z,29.13
2023-01-25T04:05:48.075Z,28.80
2023-01-25T04:08:14.798Z,28.80
2023-01-25T04:10:41.193Z,28.90
2023-01-25T04:13:07.683Z,28.35
2023-01-25T04:15:34.141Z,28.83
2023-01-25T04:18:00.750Z,30.58
2023-01-25T04:20:27.138Z,29.33
2023-01-25T04:22:53.501Z,28.17
2023-01-25T04:25:19.945Z,30.00
2023-01-25T04:27:46.544Z,30.90
2023-01-25T04:30:13.130Z,31.08
2023-01-25T04:32:39.644Z,31.38
2023-01-25T04:35:06.255Z,33.03
2023-01-25T04:37:32.671Z,30.52
2023-01-25T04:39:59.081Z,30.38
2023-01-25T04:42:26.613Z,31.65
2023-01-25T04:44:53.001Z,30.02
2023-01-25T04:47:19.403Z,30.27
2023-01-25T04:49:45.817Z,30.75
2023-01-25T04:52:12.180Z,30.23
2023-01-25T04:54:38.637Z,29.90
2023-01-25T04:57:05.444Z,30.35
2023-01-25T04:59:31.899Z,30.27
2023-01-25T05:01:58.352Z,30.17
2023-01-25T05:04:24.786Z,30.65
2023-01-25T05:06:51.165Z,31.25
2023-01-25T05:09:17.642Z,30.60
2023-01-25T05:11:44.080Z,27.55
2023-01-25T05:14:10.559Z,33.65
2023-01-25T05:16:36.985Z,29.65
2023-01-25T05:19:03.682Z,29.48
2023-01-25T05:21:48.675Z,28.58
2023-01-25T05:24:15.150Z,28.67
2023-01-25T05:27:00.204Z,30.05
2023-01-25T05:29:31.509Z,31.70
2023-01-25T05:31:58.832Z,31.10
2023-01-25T05:34:26.096Z,29.98
2023-01-25T05:36:52.623Z,30.33
2023-01-25T05:39:19.012Z,30.20
2023-01-25T05:41:45.381Z,29.08
2023-01-25T05:44:11.926Z,33.03
2023-01-25T05:46:38.360Z,29.85
2023-01-25T05:49:05.170Z,30.08
2023-01-25T05:51:31.589Z,31.15
2023-01-25T05:53:58.345Z,29.77
2023-01-25T05:56:24.868Z,31.65
2023-01-25T05:58:57.952Z,32.47
2023-01-25T06:01:25.558Z,30.30
2023-01-25T06:03:52.379Z,32.38
2023-01-25T06:06:18.796Z,34.85
2023-01-25T06:08:45.225Z,32.15
2023-01-25T06:11:14.564Z,31.90
2023-01-25T06:13:41.957Z,32.60
2023-01-25T06:16:09.000Z,31.70
2023-01-25T06:18:35.830Z,34.80
2023-01-25T06:21:03.010Z,32.55
2023-01-25T06:23:30.053Z,33.10
2023-01-25T06:26:08.049Z,33.88
2023-01-25T06:28:36.141Z,32.47
2023-01-25T06:31:08.628Z,32.20
2023-01-25T06:33:35.669Z,33.85
2023-01-25T06:36:06.342Z,32.28
2023-01-25T06:38:33.487Z,34.45
2023-01-25T06:41:01.308Z,33.10
2023-01-25T06:43:28.355Z,34.47
2023-01-25T06:45:58.580Z,34.80
2023-01-25T06:48:25.469Z,32.75
2023-01-25T06:50:57.102Z,34.80
2023-01-25T06:53:28.488Z,33.00
2023-01-25T06:56:02.395Z,33.88
2023-01-25T06:58:29.585Z,33.47
2023-01-25T07:01:04.007Z,30.80
2023-01-25T07:03:30.872Z,29.23
2023-01-25T07:06:00.872Z,30.65
2023-01-25T07:08:28.175Z,29.38
2023-01-25T07:10:56.570Z,30.58
2023-01-25T07:13:24.557Z,31.35
2023-01-25T07:15:54.958Z,32.33
2023-01-25T07:18:21.397Z,31.58
2023-01-25T07:20:47.904Z,31.58
2023-01-25T07:23:14.274Z,32.15
2023-01-25T07:25:45.656Z,31.63
2023-01-25T07:28:12.060Z,33.45
2023-01-25T07:30:38.518Z,31.08
2023-01-25T07:33:04.873Z,32.28
2023-01-25T07:35:32.287Z,31.98
2023-01-25T07:37:58.816Z,30.58
2023-01-25T07:40:25.333Z,31.63
2023-01-25T07:42:52.240Z,28.38
2023-01-25T07:45:19.119Z,30.02
2023-01-25T07:47:45.515Z,30.33
2023-01-25T07:50:12.113Z,30.10
2023-01-25T07:52:38.750Z,27.67
2023-01-25T07:55:05.725Z,29.23
2023-01-25T07:57:32.117Z,28.67
2023-01-25T07:59:58.502Z,27.75
2023-01-25T08:02:24.992Z,28.67
2023-01-25T08:04:51.996Z,30.25
2023-01-25T08:07:20.069Z,29.75
2023-01-25T08:09:46.444Z,29.88
2023-01-25T08:12:12.860Z,28.10
2023-01-25T08:14:39.256Z,29.05
2023-01-25T08:17:05.640Z,29.70
2023-01-25T08:19:32.053Z,30.00
2023-01-25T08:21:58.440Z,29.38
2023-01-25T08:24:25.642Z,28.75
2023-01-25T08:26:52.367Z,29.02
2023-01-25T08:29:18.841Z,29.38
2023-01-25T08:31:45.382Z,26.05
2023-01-25T08:34:11.973Z,26.17
2023-01-25T08:36:38.416Z,28.60
2023-01-25T08:39:07.256Z,26.58
2023-01-25T08:41:35.284Z,27.55
2023-01-25T08:44:01.765Z,26.98
2023-01-25T08:46:31.595Z,27.23
2023-01-25T08:48:59.700Z,32.55
2023-01-25T08:51:26.688Z,29.67
2023-01-25T08:53:53.073Z,28.02
2023-01-25T08:56:19.795Z,26.45
2023-01-25T08:58:47.790Z,28.23
2023-01-25T09:01:16.380Z,29.02
2023-01-25T09:03:44.923Z,28.10
2023-01-25T09:06:11.844Z,27.30
2023-01-25T09:08:38.465Z,26.98
2023-01-25T09:11:09.916Z,27.63
2023-01-25T09:13:36.332Z,28.23
2023-01-25T09:16:08.231Z,26.55
2023-01-25T09:18:35.869Z,27.38
2023-01-25T09:21:07.165Z,28.27
2023-01-25T09:23:40.060Z,25.87
2023-01-25T09:26:17.867Z,26.70
2023-01-25T09:28:50.843Z,27.23
2023-01-25T09:31:22.127Z,28.20
2023-01-25T09:33:50.694Z,28.35
2023-01-25T09:36:17.119Z,28.80
2023-01-25T09:38:43.509Z,29.70
2023-01-25T09:41:33.668Z,27.65
2023-01-25T09:44:35.600Z,29.30
2023-01-25T09:47:05.792Z,22.38
2023-01-25T09:49:51.007Z,28.90
2023-01-25T09:52:31.003Z,27.70
2023-01-25T09:54:57.838Z,28.15
2023-01-25T09:57:31.991Z,27.05
2023-01-25T10:00:02.079Z,28.70
2023-01-25T10:02:36.944Z,26.55
2023-01-25T10:05:15.736Z,26.23
2023-01-25T10:08:03.319Z,26.65
2023-01-25T10:10:36.549Z,28.45
2023-01-25T10:13:03.089Z,27.25
2023-01-25T10:15:32.964Z,25.88
2023-01-25T10:18:04.169Z,30.15
2023-01-25T10:20:40.818Z,27.60
2023-01-25T10:23:19.299Z,28.83
2023-01-25T10:25:49.956Z,29.52
2023-01-25T10:28:31.418Z,28.00
2023-01-25T10:31:05.509Z,28.30
2023-01-25T10:33:36.654Z,27.98
2023-01-25T10:36:04.800Z,28.67
2023-01-25T10:38:37.917Z,30.00
2023-01-25T10:41:12.334Z,29.58
2023-01-25T10:43:38.978Z,28.13
2023-01-25T10:46:18.215Z,27.60
2023-01-25T10:48:44.627Z,26.67
2023-01-25T10:51:29.025Z,28.75
2023-01-25T10:54:01.598Z,28.27
2023-01-25T10:56:28.394Z,27.65
2023-01-25T10:59:07.382Z,28.42
2023-01-25T11:01:36.272Z,27.92
2023-01-25T11:04:03.272Z,29.40
2023-01-25T11:06:46.566Z,30.63
2023-01-25T11:09:34.474Z,27.90
2023-01-25T11:12:03.918Z,28.55
2023-01-25T11:14:31.993Z,29.67
2023-01-25T11:16:59.939Z,31.70
2023-01-25T11:19:36.351Z,32.08
2023-01-25T11:22:24.482Z,31.70
2023-01-25T11:24:50.980Z,30.13
2023-01-25T11:27:25.124Z,30.67
2023-01-25T11:30:11.196Z,31.38
2023-01-25T11:32:41.370Z,34.60
2023-01-25T11:35:22.709Z,37.13
2023-01-25T11:38:07.874Z,36.33
2023-01-25T11:40:40.361Z,34.85
2023-01-25T11:43:42.323Z,34.90
2023-01-25T11:46:13.741Z,33.33
2023-01-25T11:48:58.980Z,32.92
2023-01-25T11:51:32.422Z,31.02
2023-01-25T11:54:26.641Z,32.63
2023-01-25T11:57:02.160Z,32.95
2023-01-25T11:59:54.147Z,31.90
2023-01-25T12:02:53.779Z,31.38
2023-01-25T12:05:57.213Z,32.67
2023-01-25T12:08:44.877Z,33.00
2023-01-25T12:11:26.317Z,35.33
2023-01-25T12:14:09.361Z,33.93
2023-01-25T12:16:47.744Z,38.88
2023-01-25T12:19:34.283Z,32.17
2023-01-25T12:22:38.127Z,30.52
2023-01-25T12:25:36.864Z,32.35
2023-01-25T12:28:14.105Z,32.58
2023-01-25T12:31:00.976Z,30.92
2023-01-25T12:33:38.734Z,32.47
2023-01-25T12:36:11.791Z,32.58
2023-01-25T12:38:43.014Z,33.42
2023-01-25T12:41:30.554Z,34.80
2023-01-25T12:44:02.994Z,33.67
2023-01-25T12:46:55.762Z,33.95
2023-01-25T12:49:31.183Z,35.97
2023-01-25T12:52:00.339Z,36.17
2023-01-25T12:54:36.224Z,37.58
2023-01-25T12:57:25.840Z,34.28
2023-01-25T13:00:31.266Z,35.42
2023-01-25T13:03:36.564Z,33.58
2023-01-25T13:06:17.292Z,32.50
2023-01-25T13:08:52.591Z,29.58
2023-01-25T13:11:23.349Z,35.33
2023-01-25T13:13:49.981Z,33.20
2023-01-25T13:16:33.668Z,32.42
2023-01-25T13:19:00.161Z,31.38
2023-01-25T13:21:44.941Z,33.03
2023-01-25T13:24:15.806Z,32.55
2023-01-25T13:26:52.826Z,35.40
2023-01-25T13:29:49.126Z,31.48
2023-01-25T13:32:24.627Z,34.55
2023-01-25T13:34:51.005Z,33.88
2023-01-25T13:37:29.472Z,35.72
2023-01-25T13:39:58.219Z,30.95
2023-01-25T13:42:26.859Z,33.95
2023-01-25T13:45:00.153Z,31.98
2023-01-25T13:47:29.954Z,34.85
2023-01-25T13:49:59.300Z,32.40
2023-01-25T13:52:26.958Z,29.60
2023-01-25T13:54:57.509Z,28.40
2023-01-25T13:57:26.860Z,29.58
2023-01-25T14:00:11.501Z,27.42
2023-01-25T14:02:39.424Z,27.38
2023-01-25T14:05:07.827Z,29.70
2023-01-25T14:07:36.909Z,25.85
2023-01-25T14:10:08.913Z,28.17
2023-01-25T14:15:32.203Z,25.13
2023-01-25T14:18:19.195Z,27.15
2023-01-25T14:20:50.812Z,27.40
2023-01-25T14:23:27.392Z,26.42
2023-01-25T14:25:55.177Z,26.00
2023-01-25T14:28:21.942Z,25.83
2023-01-25T14:30:53.317Z,26.05
2023-01-25T14:33:26.364Z,27.00
2023-01-25T14:35:57.329Z,27.02
2023-01-25T14:38:31.030Z,26.83
2023-01-25T14:41:20.549Z,29.58
2023-01-25T14:43:52.813Z,27.52
2023-01-25T14:48:47.020Z,26.85
2023-01-25T14:51:31.677Z,28.38
2023-01-25T14:54:05.034Z,31.48
2023-01-25T14:56:35.336Z,31.38
2023-01-25T14:59:01.955Z,34.22
2023-01-25T15:01:41.236Z,31.60
2023-01-25T15:04:12.557Z,32.63
2023-01-25T15:07:16.692Z,28.08
2023-01-25T15:10:01.447Z,32.17
2023-01-25T15:12:30.269Z,31.48
2023-01-25T15:14:57.759Z,31.13
2023-01-25T15:17:42.940Z,32.58
2023-01-25T15:20:38.396Z,33.65
2023-01-25T15:23:24.252Z,32.22
2023-01-25T15:25:50.603Z,31.20
2023-01-25T15:28:16.987Z,34.38
2023-01-25T15:30:43.482Z,34.72
2023-01-25T15:33:29.099Z,35.08
2023-01-25T15:35:55.930Z,34.15
2023-01-25T15:38:22.576Z,35.13
2023-01-25T15:40:49.170Z,34.03
2023-01-25T15:43:17.406Z,32.78
2023-01-25T15:45:44.844Z,35.78
2023-01-25T15:48:16.654Z,34.63
2023-01-25T15:50:43.110Z,33.95
2023-01-25T15:53:16.885Z,33.90
2023-01-25T15:55:45.044Z,31.98
2023-01-25T15:58:14.853Z,36.63
2023-01-25T16:00:41.841Z,37.70
2023-01-25T16:03:08.444Z,35.80
2023-01-25T16:05:34.873Z,36.75
2023-01-25T16:08:01.241Z,37.05
2023-01-25T16:10:27.664Z,38.38
2023-01-25T16:12:54.107Z,37.35
2023-01-25T16:15:20.503Z,38.75
2023-01-25T16:17:46.933Z,38.28
2023-01-25T16:20:16.926Z,39.70
2023-01-25T16:22:43.347Z,37.72
2023-01-25T16:25:09.890Z,39.25
2023-01-25T16:27:36.343Z,37.67
2023-01-25T16:30:04.535Z,38.22
2023-01-25T16:32:30.921Z,38.53
2023-01-25T16:34:57.295Z,37.78
2023-01-25T16:37:23.763Z,37.85
2023-01-25T16:39:52.467Z,34.05
2023-01-25T16:42:20.626Z,38.88
2023-01-25T16:44:49.008Z,36.58
2023-01-25T16:47:15.495Z,40.00
2023-01-25T16:49:41.875Z,41.55
2023-01-25T16:52:10.725Z,38.88
2023-01-25T16:54:37.322Z,37.70
2023-01-25T16:57:15.082Z,39.25
2023-01-25T17:02:12.823Z,35.10
2023-01-25T17:04:39.291Z,36.55
2023-01-25T17:07:05.895Z,38.08
2023-01-25T17:09:32.477Z,37.58
2023-01-25T17:11:58.873Z,39.15
2023-01-25T17:14:25.264Z,39.55
2023-01-25T17:16:55.333Z,39.72
2023-01-25T17:19:21.825Z,39.08
2023-01-25T17:21:48.432Z,42.78
2023-01-25T17:24:17.376Z,41.38
2023-01-25T17:26:43.858Z,40.50
2023-01-25T17:29:10.360Z,42.20
2023-01-25T17:31:37.579Z,42.42
2023-01-25T17:34:07.350Z,40.47
2023-01-25T17:36:34.209Z,42.47
2023-01-25T17:39:04.976Z,44.95
2023-01-25T17:41:31.892Z,43.00
2023-01-25T17:43:58.391Z,41.95
2023-01-25T17:46:30.070Z,43.42
2023-01-25T17:48:57.492Z,45.55
2023-01-25T17:51:25.146Z,42.55
2023-01-25T17:53:52.885Z,43.65
2023-01-25T17:56:20.021Z,45.97
2023-01-25T17:58:46.774Z,43.85
2023-01-25T18:01:20.404Z,43.50
2023-01-25T18:03:47.838Z,44.60
2023-01-25T18:06:18.825Z,45.83
2023-01-25T18:08:48.100Z,46.65
2023-01-25T18:11:16.847Z,47.50
2023-01-25T18:13:45.894Z,44.72
2023-01-25T18:16:12.635Z,46.85
2023-01-25T18:18:40.404Z,43.78
2023-01-25T18:21:09.666Z,43.88
2023-01-25T18:23:37.240Z,43.22
2023-01-25T18:26:05.434Z,44.30
2023-01-25T18:28:32.543Z,45.30
2023-01-25T18:31:01.232Z,46.13
2023-01-25T18:33:27.759Z,45.45
2023-01-25T18:35:55.104Z,44.53
2023-01-25T18:38:21.500Z,47.78
2023-01-25T18:40:47.972Z,49.35
2023-01-25T18:43:16.403Z,51.13
2023-01-25T18:45:43.804Z,51.78
2023-01-25T18:48:13.233Z,50.10
2023-01-25T18:50:41.203Z,51.47
2023-01-25T18:53:09.317Z,49.53
2023-01-25T18:55:36.778Z,45.25
2023-01-25T18:58:04.423Z,46.72
2023-01-25T19:00:34.796Z,48.28
2023-01-25T19:03:01.228Z,46.40
2023-01-25T19:05:27.717Z,49.15
2023-01-25T19:07:54.239Z,49.15
2023-01-25T19:10:20.684Z,46.17
2023-01-25T19:12:47.139Z,47.20
2023-01-25T19:15:13.660Z,45.92
2023-01-25T19:17:40.079Z,46.63
2023-01-25T19:20:06.802Z,48.47
2023-01-25T19:22:33.435Z,49.80
2023-01-25T19:24:59.827Z,49.80
2023-01-25T19:27:26.888Z,47.92
2023-01-25T19:29:53.313Z,50.78
2023-01-25T19:32:19.836Z,48.17
2023-01-25T19:34:46.305Z,46.10
2023-01-25T19:37:12.692Z,47.53
2023-01-25T19:39:39.050Z,46.20
2023-01-25T19:42:06.832Z,48.35
2023-01-25T19:44:33.196Z,46.55
2023-01-25T19:46:59.560Z,46.83
2023-01-25T19:49:26.005Z,49.38
2023-01-25T19:51:55.167Z,48.30
2023-01-25T19:54:22.902Z,48.55
2023-01-25T19:56:49.603Z,49.00
2023-01-25T19:59:18.572Z,50.15
2023-01-25T20:01:46.087Z,49.35
2023-01-25T20:04:14.709Z,50.15
2023-01-25T20:06:41.745Z,49.70
2023-01-25T20:09:08.466Z,49.53
2023-01-25T20:11:34.915Z,48.40
2023-01-25T20:14:03.698Z,46.80
2023-01-25T20:16:32.120Z,44.33
2023-01-25T20:18:59.356Z,44.78
2023-01-25T20:21:26.821Z,45.80
2023-01-25T20:23:57.915Z,46.35
2023-01-25T20:26:33.181Z,44.60
2023-01-25T20:29:00.249Z,44.38
2023-01-25T20:31:29.474Z,45.30
2023-01-25T20:34:01.644Z,44.50
2023-01-25T20:36:28.763Z,46.45
2023-01-25T20:38:55.420Z,45.42
2023-01-25T20:41:22.340Z,46.70
2023-01-25T20:43:53.787Z,48.55
2023-01-25T20:46:21.568Z,48.40
2023-01-25T20:48:48.346Z,47.45
2023-01-25T20:51:16.919Z,45.42
2023-01-25T20:53:45.026Z,44.60
2023-01-25T20:56:13.049Z,46.28
2023-01-25T20:58:39.620Z,46.30
2023-01-25T21:01:16.998Z,50.10
2023-01-25T21:03:43.449Z,50.03
2023-01-25T21:06:09.959Z,51.05
2023-01-25T21:08:36.807Z,51.28
2023-01-25T21:11:03.197Z,48.00
2023-01-25T21:13:29.817Z,53.00
2023-01-25T21:16:04.371Z,56.80
2023-01-25T21:18:42.805Z,52.15
2023-01-25T21:21:14.082Z,49.92
2023-01-25T21:23:42.492Z,47.83
2023-01-25T21:26:13.659Z,49.20
2023-01-25T21:28:40.107Z,38.50
2023-01-25T21:31:14.059Z,50.05
2023-01-25T21:33:40.577Z,48.42
2023-01-25T21:36:08.622Z,48.70
2023-01-25T21:38:36.151Z,48.13
2023-01-25T21:41:03.783Z,45.72
2023-01-25T21:43:30.252Z,50.17
2023-01-25T21:46:14.730Z,46.20
2023-01-25T21:48:59.802Z,43.50
2023-01-25T21:51:35.231Z,46.85
2023-01-25T21:54:01.699Z,45.58
2023-01-25T21:56:28.927Z,43.42
2023-01-25T21:58:55.328Z,44.80
2023-01-25T22:01:22.284Z,45.20
2023-01-25T22:03:50.135Z,44.33
2023-01-25T22:06:17.473Z,47.33
2023-01-25T22:08:44.639Z,49.97
2023-01-25T22:11:11.304Z,48.03
2023-01-25T22:13:38.231Z,50.97
2023-01-25T22:16:06.953Z,49.60
2023-01-25T22:18:35.818Z,52.22
2023-01-25T22:21:04.230Z,54.08
2023-01-25T22:23:30.827Z,46.60
2023-01-25T22:26:09.006Z,46.72
2023-01-25T22:28:48.518Z,48.45
2023-01-25T22:31:22.659Z,47.45
2023-01-25T22:33:49.926Z,50.72
2023-01-25T22:36:17.554Z,48.30
2023-01-25T22:38:44.178Z,51.00
2023-01-25T22:41:16.771Z,56.53
2023-01-25T22:43:43.744Z,56.40
2023-01-25T22:46:15.223Z,47.75
2023-01-25T22:48:41.707Z,52.95
2023-01-25T22:51:16.696Z,54.15
2023-01-25T22:53:43.311Z,50.58
2023-01-25T22:56:18.804Z,52.33
2023-01-25T22:58:45.957Z,49.63
2023-01-25T23:01:15.645Z,50.67
2023-01-25T23:03:42.519Z,49.50
2023-01-25T23:06:12.476Z,50.58
2023-01-25T23:08:40.312Z,52.13
2023-01-25T23:11:18.626Z,51.50
2023-01-25T23:14:05.652Z,46.80
2023-01-25T23:16:32.957Z,54.30
2023-01-25T23:18:59.890Z,49.80
2023-01-25T23:21:27.786Z,54.22
2023-01-25T23:23:55.296Z,52.13
2023-01-25T23:26:22.274Z,54.38
2023-01-25T23:28:53.663Z,52.30
2023-01-25T23:31:21.758Z,45.78
2023-01-25T23:33:53.289Z,53.47
2023-01-25T23:36:27.951Z,52.53
2023-01-25T23:38:55.149Z,49.80
2023-01-25T23:41:22.756Z,51.92
2023-01-25T23:43:50.001Z,52.78
2023-01-25T23:46:17.301Z,53.33
2023-01-25T23:48:44.682Z,51.22
2023-01-25T23:51:11.500Z,50.25
2023-01-25T23:53:38.847Z,51.15
2023-01-25T23:56:13.673Z,54.38
2023-01-25T23:58:40.410Z,51.90
